»·PEaware :: N4139Q KVNY-KAJO

N4139Q :: KVNY-KAJO

FLIGHT INFORMATION

Flight Status: Arrived
Operator: Privately registered:
United States
More flights under this callsign
Pilot: Joey C. (6821)
Aircraft: DEHAVILLAND DHC-1
(DHC1)
More flights by this aircraft type
Origin: KVNY Van Nuys
United States
Destination: KAJO Corona Mun
United States
More flights between these airports :: More routes between these airports
Route:
File this flight plan on PilotEdge
Remarks:
Altitude:
(Current/Filed)
2,500ft
Speed:
(Current/Filed)
100kts
Departed: 02-Dec-19 12:53 PM
Arrived: 02-Dec-19 01:29 PM
Distance/Time
Traveled:
48nm/0:36
Distance/Time
To Go:
Arrived

Flight Plot

Page will automatically refresh every two minutes.


Map Options




Map Legend


Flown Route
Filed Route
Departure Airport
Arrival Airport
Navaid (VOR, NDB)
Fix

Horizontal Profiles

Position Reports

Time Latitude Longitude Heading Altitude Ground
Speed
02-Dec-19 12:37 34.208083 -118.491756 91 806ft 0kts
02-Dec-19 12:38 34.208083 -118.491756 91 806ft 0kts
02-Dec-19 12:39 34.208083 -118.491756 91 806ft 0kts
02-Dec-19 12:40 34.208083 -118.491756 91 806ft 0kts
02-Dec-19 12:41 34.208083 -118.491756 91 806ft 0kts
02-Dec-19 12:42 34.208083 -118.491756 91 806ft 0kts
02-Dec-19 12:43 34.208083 -118.491756 91 806ft 0kts
02-Dec-19 12:44 34.208083 -118.491756 91 806ft 0kts
02-Dec-19 12:45 34.208083 -118.491756 91 806ft 0kts
02-Dec-19 12:46 34.208447 -118.491411 355 806ft 7kts
02-Dec-19 12:47 34.212322 -118.491779 355 806ft 15kts
02-Dec-19 12:48 34.216093 -118.492216 355 806ft 12kts
02-Dec-19 12:49 34.218594 -118.492295 41 806ft 0kts
02-Dec-19 12:49 34.218594 -118.492295 41 806ft 0kts
02-Dec-19 12:51 34.218594 -118.492295 41 806ft 0kts
02-Dec-19 12:52 34.218212 -118.491173 175 806ft 23kts
02-Dec-19 12:52 34.199184 -118.489623 176 1329ft 103kts
02-Dec-19 12:54 34.164628 -118.485835 174 2445ft 115kts
02-Dec-19 12:55 34.132409 -118.482106 171 2510ft 105kts
02-Dec-19 12:55 34.108620 -118.478614 167 2464ft 100kts
02-Dec-19 12:56 34.098740 -118.451856 94 2630ft 95kts
02-Dec-19 12:57 34.100753 -118.419868 81 2751ft 98kts
02-Dec-19 12:58 34.104038 -118.385778 84 2723ft 104kts
02-Dec-19 12:59 34.106632 -118.350180 83 2633ft 109kts
02-Dec-19 13:00 34.109532 -118.314323 82 2684ft 107kts
02-Dec-19 13:01 34.113309 -118.278574 82 2695ft 108kts
02-Dec-19 13:02 34.114948 -118.242735 81 2732ft 107kts
02-Dec-19 13:03 34.117652 -118.206729 89 2771ft 106kts
02-Dec-19 13:05 34.120289 -118.165592 98 2855ft 105kts
02-Dec-19 13:05 34.114059 -118.136486 104 2885ft 108kts
02-Dec-19 13:06 34.105297 -118.100282 110 2698ft 120kts
02-Dec-19 13:07 34.093520 -118.063806 111 2641ft 110kts
02-Dec-19 13:08 34.081743 -118.032488 136 2719ft 107kts
02-Dec-19 13:09 34.056463 -118.013961 144 2713ft 106kts
02-Dec-19 13:10 34.030970 -117.995786 146 2678ft 106kts
02-Dec-19 13:11 34.005280 -117.976325 144 2473ft 108kts
02-Dec-19 13:12 33.980120 -117.957476 146 2324ft 107kts
02-Dec-19 13:13 33.955764 -117.939662 147 2349ft 99kts
02-Dec-19 13:14 33.932351 -117.922762 148 2405ft 98kts
02-Dec-19 13:15 33.909500 -117.905194 147 2478ft 98kts
02-Dec-19 13:16 33.886434 -117.887575 125 2528ft 97kts
02-Dec-19 13:17 33.883844 -117.855824 87 2561ft 98kts
02-Dec-19 13:18 33.886239 -117.822135 86 2482ft 101kts
02-Dec-19 13:19 33.885345 -117.787534 95 2333ft 106kts
02-Dec-19 13:20 33.881400 -117.752629 98 1974ft 102kts
02-Dec-19 13:21 33.878230 -117.720999 95 1863ft 94kts
02-Dec-19 13:22 33.876394 -117.689825 94 1779ft 89kts
02-Dec-19 13:23 33.874788 -117.660657 93 1826ft 89kts
02-Dec-19 13:24 33.878343 -117.629994 92 1658ft 89kts
02-Dec-19 13:25 33.877925 -117.603890 92 1599ft 62kts
02-Dec-19 13:26 33.886846 -117.588907 16 1052ft 68kts
02-Dec-19 13:27 33.897715 -117.598758 269 542ft 55kts
02-Dec-19 13:28 33.897347 -117.605790 172 537ft 11kts
02-Dec-19 13:29 33.897719 -117.598591 268 543ft 56kts
02-Dec-19 13:30 33.897374 -117.605790 179 537ft 11kts

Navigation Log

Ident Type
Flight plan parsing failed, navigation log unavailable